sensor_id;sensor_type;location;lat;lon;timestamp;pressure;altitude;pressure_sealevel;temperature;humidity
21869;BME280;11099;41.564;23.296;2023-04-21T00:01:18;97264.16;;;14.64;73.42
21869;BME280;11099;41.564;23.296;2023-04-21T00:03:44;97167.31;;;14.37;72.23
21869;BME280;11099;41.564;23.296;2023-04-21T00:06:10;97204.16;;;14.40;72.04
21869;BME280;11099;41.564;23.296;2023-04-21T00:08:36;97172.47;;;14.30;72.85
21869;BME280;11099;41.564;23.296;2023-04-21T00:11:05;97260.56;;;14.84;71.86
21869;BME280;11099;41.564;23.296;2023-04-21T00:13:32;97159.47;;;13.92;72.73
21869;BME280;11099;41.564;23.296;2023-04-21T00:15:58;97087.16;;;13.64;72.16
21869;BME280;11099;41.564;23.296;2023-04-21T00:18:23;97259.50;;;15.01;71.25
21869;BME280;11099;41.564;23.296;2023-04-21T00:20:49;97261.34;;;15.13;70.13
21869;BME280;11099;41.564;23.296;2023-04-21T00:23:15;97158.94;;;14.39;70.34
21869;BME280;11099;41.564;23.296;2023-04-21T00:25:40;97238.66;;;15.22;69.38
21869;BME280;11099;41.564;23.296;2023-04-21T00:28:06;97254.44;;;14.84;72.34
21869;BME280;11099;41.564;23.296;2023-04-21T00:30:31;97222.44;;;14.63;72.27
21869;BME280;11099;41.564;23.296;2023-04-21T00:32:57;97181.78;;;14.61;70.67
21869;BME280;11099;41.564;23.296;2023-04-21T00:35:22;97252.13;;;14.98;71.08
21869;BME280;11099;41.564;23.296;2023-04-21T00:37:47;97137.84;;;14.49;69.52
21869;BME280;11099;41.564;23.296;2023-04-21T00:40:14;97236.81;;;15.26;69.34
21869;BME280;11099;41.564;23.296;2023-04-21T00:42:40;97179.34;;;14.68;69.39
21869;BME280;11099;41.564;23.296;2023-04-21T00:45:06;97248.63;;;15.53;68.03
21869;BME280;11099;41.564;23.296;2023-04-21T00:47:31;97118.69;;;14.47;69.07
21869;BME280;11099;41.564;23.296;2023-04-21T00:49:57;97245.22;;;14.97;69.53
21869;BME280;11099;41.564;23.296;2023-04-21T00:52:24;97237.56;;;15.11;68.98
21869;BME280;11099;41.564;23.296;2023-04-21T00:54:51;97129.44;;;14.11;69.67
21869;BME280;11099;41.564;23.296;2023-04-21T00:57:17;97137.63;;;13.41;73.79
21869;BME280;11099;41.564;23.296;2023-04-21T00:59:43;97115.78;;;13.27;72.39
21869;BME280;11099;41.564;23.296;2023-04-21T01:02:08;97253.91;;;13.92;73.82
21869;BME280;11099;41.564;23.296;2023-04-21T01:04:34;97239.06;;;13.25;77.16
21869;BME280;11099;41.564;23.296;2023-04-21T01:07:04;97111.50;;;13.13;74.49
21869;BME280;11099;41.564;23.296;2023-04-21T01:09:30;97225.03;;;13.07;77.46
21869;BME280;11099;41.564;23.296;2023-04-21T01:12:14;97241.44;;;13.18;79.35
21869;BME280;11099;41.564;23.296;2023-04-21T01:14:40;97232.69;;;12.55;83.42
21869;BME280;11099;41.564;23.296;2023-04-21T01:17:06;97228.81;;;13.27;79.57
21869;BME280;11099;41.564;23.296;2023-04-21T01:19:36;97195.63;;;13.28;77.94
21869;BME280;11099;41.564;23.296;2023-04-21T01:22:07;97235.41;;;13.87;77.52
21869;BME280;11099;41.564;23.296;2023-04-21T01:27:15;97230.94;;;13.91;76.75
21869;BME280;11099;41.564;23.296;2023-04-21T01:29:44;97198.59;;;13.84;76.20
21869;BME280;11099;41.564;23.296;2023-04-21T01:32:13;97235.53;;;13.45;78.66
21869;BME280;11099;41.564;23.296;2023-04-21T01:34:39;97170.75;;;12.61;81.05
21869;BME280;11099;41.564;23.296;2023-04-21T01:37:10;97236.41;;;12.83;82.07
21869;BME280;11099;41.564;23.296;2023-04-21T01:39:41;97150.41;;;12.90;79.04
21869;BME280;11099;41.564;23.296;2023-04-21T01:42:07;97221.31;;;13.66;78.37
21869;BME280;11099;41.564;23.296;2023-04-21T01:44:33;97222.59;;;13.93;76.10
21869;BME280;11099;41.564;23.296;2023-04-21T01:46:59;97160.28;;;13.80;74.66
21869;BME280;11099;41.564;23.296;2023-04-21T01:49:25;97186.00;;;13.97;73.83
21869;BME280;11099;41.564;23.296;2023-04-21T01:51:51;97123.69;;;13.84;72.65
21869;BME280;11099;41.564;23.296;2023-04-21T01:54:16;97210.81;;;14.59;71.96
21869;BME280;11099;41.564;23.296;2023-04-21T01:56:42;97154.72;;;14.38;70.72
21869;BME280;11099;41.564;23.296;2023-04-21T01:59:07;97187.91;;;14.73;70.43
21869;BME280;11099;41.564;23.296;2023-04-21T02:01:33;97139.16;;;14.15;70.70
21869;BME280;11099;41.564;23.296;2023-04-21T02:04:01;97113.53;;;14.02;70.47
21869;BME280;11099;41.564;23.296;2023-04-21T02:06:26;97165.19;;;14.55;70.07
21869;BME280;11099;41.564;23.296;2023-04-21T02:08:52;97126.34;;;13.84;70.55
21869;BME280;11099;41.564;23.296;2023-04-21T02:11:17;97221.97;;;14.73;70.77
21869;BME280;11099;41.564;23.296;2023-04-21T02:13:42;97152.56;;;14.43;70.60
21869;BME280;11099;41.564;23.296;2023-04-21T02:16:08;97138.69;;;14.26;70.24
21869;BME280;11099;41.564;23.296;2023-04-21T02:18:33;97106.56;;;14.26;69.94
21869;BME280;11099;41.564;23.296;2023-04-21T02:20:59;97150.81;;;14.47;70.11
21869;BME280;11099;41.564;23.296;2023-04-21T02:23:24;97163.97;;;14.53;70.21
21869;BME280;11099;41.564;23.296;2023-04-21T02:25:50;97192.44;;;14.57;70.58
21869;BME280;11099;41.564;23.296;2023-04-21T02:28:15;97124.00;;;14.07;71.10
21869;BME280;11099;41.564;23.296;2023-04-21T02:30:41;97138.25;;;14.23;71.37
21869;BME280;11099;41.564;23.296;2023-04-21T02:33:06;97086.13;;;13.81;71.68
21869;BME280;11099;41.564;23.296;2023-04-21T02:35:32;97172.00;;;14.53;70.86
21869;BME280;11099;41.564;23.296;2023-04-21T02:37:58;97222.41;;;14.75;71.40
21869;BME280;11099;41.564;23.296;2023-04-21T02:40:23;97106.97;;;13.87;71.33
21869;BME280;11099;41.564;23.296;2023-04-21T02:42:49;97192.50;;;14.61;70.62
21869;BME280;11099;41.564;23.296;2023-04-21T02:45:14;97167.34;;;14.25;71.50
21869;BME280;11099;41.564;23.296;2023-04-21T02:47:40;97191.84;;;14.39;71.30
21869;BME280;11099;41.564;23.296;2023-04-21T02:50:06;97250.44;;;13.80;76.02
21869;BME280;11099;41.564;23.296;2023-04-21T02:52:35;97243.88;;;13.11;79.25
21869;BME280;11099;41.564;23.296;2023-04-21T02:55:02;97157.78;;;11.80;80.95
21869;BME280;11099;41.564;23.296;2023-04-21T02:57:28;97254.13;;;12.17;82.71
21869;BME280;11099;41.564;23.296;2023-04-21T02:59:54;97187.44;;;11.87;80.94
21869;BME280;11099;41.564;23.296;2023-04-21T03:02:19;97122.28;;;11.20;81.63
21869;BME280;11099;41.564;23.296;2023-04-21T03:04:45;97193.88;;;11.77;81.57
21869;BME280;11099;41.564;23.296;2023-04-21T03:07:12;97123.28;;;11.45;81.29
21869;BME280;11099;41.564;23.296;2023-04-21T03:09:38;97216.25;;;11.47;84.93
21869;BME280;11099;41.564;23.296;2023-04-21T03:12:03;97250.44;;;12.00;84.09
21869;BME280;11099;41.564;23.296;2023-04-21T03:14:29;97139.53;;;11.14;84.62
21869;BME280;11099;41.564;23.296;2023-04-21T03:16:54;97253.97;;;11.83;84.43
21869;BME280;11099;41.564;23.296;2023-04-21T03:19:20;97228.44;;;11.65;84.32
21869;BME280;11099;41.564;23.296;2023-04-21T03:21:46;97241.22;;;11.80;85.02
21869;BME280;11099;41.564;23.296;2023-04-21T03:24:11;97215.84;;;11.74;84.25
21869;BME280;11099;41.564;23.296;2023-04-21T03:26:40;97231.44;;;12.02;83.22
21869;BME280;11099;41.564;23.296;2023-04-21T03:29:06;97241.06;;;11.85;83.87
21869;BME280;11099;41.564;23.296;2023-04-21T03:31:31;97244.06;;;11.75;84.82
21869;BME280;11099;41.564;23.296;2023-04-21T03:33:57;97236.41;;;11.82;84.54
21869;BME280;11099;41.564;23.296;2023-04-21T03:36:23;97239.28;;;11.60;86.30
21869;BME280;11099;41.564;23.296;2023-04-21T03:38:48;97241.47;;;12.05;83.54
21869;BME280;11099;41.564;23.296;2023-04-21T03:41:14;97228.75;;;12.02;83.18
21869;BME280;11099;41.564;23.296;2023-04-21T03:43:39;97249.00;;;12.03;83.74
21869;BME280;11099;41.564;23.296;2023-04-21T03:46:05;97223.59;;;12.05;83.25
21869;BME280;11099;41.564;23.296;2023-04-21T03:48:30;97261.69;;;12.35;81.93
21869;BME280;11099;41.564;23.296;2023-04-21T03:50:56;97275.63;;;11.82;84.86
21869;BME280;11099;41.564;23.296;2023-04-21T03:53:22;97284.09;;;12.13;85.17
21869;BME280;11099;41.564;23.296;2023-04-21T03:55:49;97266.28;;;11.97;84.63
21869;BME280;11099;41.564;23.296;2023-04-21T03:58:15;97151.75;;;11.15;85.61
21869;BME280;11099;41.564;23.296;2023-04-21T04:00:41;97206.97;;;12.00;83.85
21869;BME280;11099;41.564;23.296;2023-04-21T04:03:06;97290.94;;;12.61;82.84
21869;BME280;11099;41.564;23.296;2023-04-21T04:05:34;97275.19;;;12.39;82.66
21869;BME280;11099;41.564;23.296;2023-04-21T04:08:00;97280.41;;;12.86;81.46
21869;BME280;11099;41.564;23.296;2023-04-21T04:10:26;97287.34;;;12.78;80.25
21869;BME280;11099;41.564;23.296;2023-04-21T04:12:51;97195.28;;;11.83;82.52
21869;BME280;11099;41.564;23.296;2023-04-21T04:15:17;97299.19;;;12.69;81.18
21869;BME280;11099;41.564;23.296;2023-04-21T04:17:42;97289.97;;;13.08;80.63
21869;BME280;11099;41.564;23.296;2023-04-21T04:20:08;97304.81;;;12.76;81.23
21869;BME280;11099;41.564;23.296;2023-04-21T04:22:34;97302.47;;;12.74;81.11
21869;BME280;11099;41.564;23.296;2023-04-21T04:24:59;97191.41;;;11.64;84.06
21869;BME280;11099;41.564;23.296;2023-04-21T04:27:26;97192.06;;;11.99;80.94
21869;BME280;11099;41.564;23.296;2023-04-21T04:29:51;97271.41;;;12.70;79.98
21869;BME280;11099;41.564;23.296;2023-04-21T04:32:17;97268.59;;;13.08;77.08
21869;BME280;11099;41.564;23.296;2023-04-21T04:34:43;97171.19;;;12.84;75.33
21869;BME280;11099;41.564;23.296;2023-04-21T04:37:09;97280.78;;;14.69;71.92
21869;BME280;11099;41.564;23.296;2023-04-21T04:39:35;97156.88;;;14.20;69.75
21869;BME280;11099;41.564;23.296;2023-04-21T04:42:01;97310.75;;;14.99;69.46
21869;BME280;11099;41.564;23.296;2023-04-21T04:44:28;97265.03;;;14.80;68.74
21869;BME280;11099;41.564;23.296;2023-04-21T04:46:54;97305.09;;;16.17;65.38
21869;BME280;11099;41.564;23.296;2023-04-21T04:49:22;97193.66;;;16.81;61.46
21869;BME280;11099;41.564;23.296;2023-04-21T04:51:51;97270.72;;;16.57;61.37
21869;BME280;11099;41.564;23.296;2023-04-21T04:54:19;97302.81;;;16.50;62.55
21869;BME280;11099;41.564;23.296;2023-04-21T04:56:51;97259.06;;;16.34;62.38
21869;BME280;11099;41.564;23.296;2023-04-21T04:59:20;97300.81;;;17.99;59.13
21869;BME280;11099;41.564;23.296;2023-04-21T05:01:52;97228.13;;;18.25;56.22
21869;BME280;11099;41.564;23.296;2023-04-21T05:04:20;97279.94;;;18.94;54.08
21869;BME280;11099;41.564;23.296;2023-04-21T05:06:46;97221.69;;;18.33;53.34
21869;BME280;11099;41.564;23.296;2023-04-21T05:09:12;97201.09;;;18.48;53.44
21869;BME280;11099;41.564;23.296;2023-04-21T05:11:37;97254.41;;;18.88;52.60
21869;BME280;11099;41.564;23.296;2023-04-21T05:14:03;97247.53;;;18.91;52.47
21869;BME280;11099;41.564;23.296;2023-04-21T05:16:28;97264.75;;;19.46;50.85
21869;BME280;11099;41.564;23.296;2023-04-21T05:18:54;97253.53;;;19.44;50.50
21869;BME280;11099;41.564;23.296;2023-04-21T05:21:25;97281.22;;;19.38;50.91
21869;BME280;11099;41.564;23.296;2023-04-21T05:23:55;97288.41;;;19.23;51.90
21869;BME280;11099;41.564;23.296;2023-04-21T05:26:20;97295.09;;;19.06;52.36
21869;BME280;11099;41.564;23.296;2023-04-21T05:28:46;97165.22;;;18.40;52.84
21869;BME280;11099;41.564;23.296;2023-04-21T05:31:12;97281.03;;;19.20;52.77
21869;BME280;11099;41.564;23.296;2023-04-21T05:33:37;97227.47;;;18.62;53.07
21869;BME280;11099;41.564;23.296;2023-04-21T05:36:08;97275.69;;;19.24;53.29
21869;BME280;11099;41.564;23.296;2023-04-21T05:38:35;97237.16;;;18.93;54.05
21869;BME280;11099;41.564;23.296;2023-04-21T05:41:01;97289.63;;;18.99;53.84
21869;BME280;11099;41.564;23.296;2023-04-21T05:43:27;97231.66;;;17.60;58.79
21869;BME280;11099;41.564;23.296;2023-04-21T05:45:52;97286.06;;;17.70;59.70
21869;BME280;11099;41.564;23.296;2023-04-21T05:48:17;97156.63;;;17.13;59.42
21869;BME280;11099;41.564;23.296;2023-04-21T05:50:43;97273.94;;;17.79;59.71
21869;BME280;11099;41.564;23.296;2023-04-21T05:53:09;97297.41;;;17.59;60.50
21869;BME280;11099;41.564;23.296;2023-04-21T05:55:35;97263.16;;;16.79;63.23
21869;BME280;11099;41.564;23.296;2023-04-21T05:58:00;97292.81;;;17.02;61.86
21869;BME280;11099;41.564;23.296;2023-04-21T06:00:26;97272.16;;;17.68;60.28
21869;BME280;11099;41.564;23.296;2023-04-21T06:02:52;97183.81;;;17.96;56.43
21869;BME280;11099;41.564;23.296;2023-04-21T06:05:17;97164.00;;;18.08;55.07
21869;BME280;11099;41.564;23.296;2023-04-21T06:07:43;97296.47;;;18.66;55.59
21869;BME280;11099;41.564;23.296;2023-04-21T06:10:10;97260.56;;;18.32;58.64
21869;BME280;11099;41.564;23.296;2023-04-21T06:12:36;97256.19;;;17.75;61.40
21869;BME280;11099;41.564;23.296;2023-04-21T06:15:01;97183.34;;;18.17;58.76
21869;BME280;11099;41.564;23.296;2023-04-21T06:17:27;97303.56;;;18.75;59.06
21869;BME280;11099;41.564;23.296;2023-04-21T06:19:52;97298.19;;;18.02;62.75
21869;BME280;11099;41.564;23.296;2023-04-21T06:22:23;97241.22;;;17.77;63.27
21869;BME280;11099;41.564;23.296;2023-04-21T06:24:48;97299.84;;;17.87;65.33
21869;BME280;11099;41.564;23.296;2023-04-21T06:27:14;97263.47;;;17.97;65.32
21869;BME280;11099;41.564;23.296;2023-04-21T06:29:40;97299.66;;;18.23;65.49
21869;BME280;11099;41.564;23.296;2023-04-21T06:32:09;97278.78;;;17.93;66.09
21869;BME280;11099;41.564;23.296;2023-04-21T06:34:36;97295.53;;;18.29;66.03
21869;BME280;11099;41.564;23.296;2023-04-21T06:37:01;97276.09;;;17.51;68.15
21869;BME280;11099;41.564;23.296;2023-04-21T06:39:27;97209.72;;;16.97;68.19
21869;BME280;11099;41.564;23.296;2023-04-21T06:41:53;97268.88;;;17.35;68.43
21869;BME280;11099;41.564;23.296;2023-04-21T06:44:19;97179.03;;;16.98;66.84
21869;BME280;11099;41.564;23.296;2023-04-21T06:46:45;97201.03;;;17.69;65.21
21869;BME280;11099;41.564;23.296;2023-04-21T06:49:11;97184.84;;;17.88;64.14
21869;BME280;11099;41.564;23.296;2023-04-21T06:51:37;97213.41;;;18.19;63.03
21869;BME280;11099;41.564;23.296;2023-04-21T06:54:03;97289.69;;;19.03;60.32
21869;BME280;11099;41.564;23.296;2023-04-21T06:56:29;97287.31;;;18.98;61.37
21869;BME280;11099;41.564;23.296;2023-04-21T06:58:55;97278.13;;;18.49;62.26
21869;BME280;11099;41.564;23.296;2023-04-21T07:01:21;97287.00;;;18.50;62.23
21869;BME280;11099;41.564;23.296;2023-04-21T07:03:49;97217.13;;;17.65;61.99
21869;BME280;11099;41.564;23.296;2023-04-21T07:06:14;97241.56;;;17.99;64.06
21869;BME280;11099;41.564;23.296;2023-04-21T07:08:40;97185.03;;;18.25;61.51
21869;BME280;11099;41.564;23.296;2023-04-21T07:11:05;97223.06;;;18.24;62.95
21869;BME280;11099;41.564;23.296;2023-04-21T07:13:31;97240.50;;;18.03;65.05
21869;BME280;11099;41.564;23.296;2023-04-21T07:15:56;97245.00;;;18.49;63.03
21869;BME280;11099;41.564;23.296;2023-04-21T07:18:22;97171.09;;;18.20;62.02
21869;BME280;11099;41.564;23.296;2023-04-21T07:20:48;97240.47;;;18.56;62.72
21869;BME280;11099;41.564;23.296;2023-04-21T07:23:13;97292.44;;;19.73;59.40
21869;BME280;11099;41.564;23.296;2023-04-21T07:25:39;97217.94;;;18.98;58.15
21869;BME280;11099;41.564;23.296;2023-04-21T07:28:04;97288.53;;;19.67;59.11
21869;BME280;11099;41.564;23.296;2023-04-21T07:30:30;97291.50;;;18.95;59.76
21869;BME280;11099;41.564;23.296;2023-04-21T07:32:56;97233.22;;;19.20;58.64
21869;BME280;11099;41.564;23.296;2023-04-21T07:35:22;97248.25;;;19.18;57.52
21869;BME280;11099;41.564;23.296;2023-04-21T07:37:48;97230.38;;;19.43;57.75
21869;BME280;11099;41.564;23.296;2023-04-21T07:40:14;97286.38;;;19.84;58.32
21869;BME280;11099;41.564;23.296;2023-04-21T07:42:39;97270.81;;;19.36;58.13
21869;BME280;11099;41.564;23.296;2023-04-21T07:45:06;97242.28;;;19.02;59.93
21869;BME280;11099;41.564;23.296;2023-04-21T07:47:32;97228.97;;;18.86;60.11
21869;BME280;11099;41.564;23.296;2023-04-21T07:49:57;97253.50;;;19.41;58.51
21869;BME280;11099;41.564;23.296;2023-04-21T07:52:23;97149.13;;;19.15;55.21
21869;BME280;11099;41.564;23.296;2023-04-21T07:54:49;97180.81;;;19.21;54.14
21869;BME280;11099;41.564;23.296;2023-04-21T07:57:14;97160.47;;;18.94;56.07
21869;BME280;11099;41.564;23.296;2023-04-21T07:59:40;97158.72;;;19.49;55.08
21869;BME280;11099;41.564;23.296;2023-04-21T08:02:07;97270.00;;;20.62;54.66
21869;BME280;11099;41.564;23.296;2023-04-21T08:04:32;97245.09;;;20.38;52.61
21869;BME280;11099;41.564;23.296;2023-04-21T08:06:58;97169.72;;;19.71;51.30
21869;BME280;11099;41.564;23.296;2023-04-21T08:09:25;97251.22;;;20.28;52.83
21869;BME280;11099;41.564;23.296;2023-04-21T08:11:50;97228.28;;;20.63;47.71
21869;BME280;11099;41.564;23.296;2023-04-21T08:14:16;97239.19;;;20.81;46.81
21869;BME280;11099;41.564;23.296;2023-04-21T08:16:42;97192.22;;;20.44;47.39
21869;BME280;11099;41.564;23.296;2023-04-21T08:19:08;97145.59;;;19.99;46.70
21869;BME280;11099;41.564;23.296;2023-04-21T08:21:34;97216.75;;;20.76;43.98
21869;BME280;11099;41.564;23.296;2023-04-21T08:24:00;97150.63;;;20.63;45.61
21869;BME280;11099;41.564;23.296;2023-04-21T08:26:25;97240.97;;;21.39;46.44
21869;BME280;11099;41.564;23.296;2023-04-21T08:28:51;97213.44;;;21.26;44.43
21869;BME280;11099;41.564;23.296;2023-04-21T08:31:20;97188.22;;;20.93;45.84
21869;BME280;11099;41.564;23.296;2023-04-21T08:33:46;97215.63;;;20.85;44.82
21869;BME280;11099;41.564;23.296;2023-04-21T08:36:11;97165.00;;;20.12;49.17
21869;BME280;11099;41.564;23.296;2023-04-21T08:38:37;97222.94;;;20.73;48.22
21869;BME280;11099;41.564;23.296;2023-04-21T08:41:04;97222.31;;;21.12;48.35
21869;BME280;11099;41.564;23.296;2023-04-21T08:43:30;97188.63;;;20.95;43.20
21869;BME280;11099;41.564;23.296;2023-04-21T08:45:56;97213.50;;;21.40;40.92
21869;BME280;11099;41.564;23.296;2023-04-21T08:48:23;97175.25;;;20.44;39.73
21869;BME280;11099;41.564;23.296;2023-04-21T08:50:50;97209.50;;;21.02;41.04
21869;BME280;11099;41.564;23.296;2023-04-21T08:53:16;97180.13;;;21.04;38.95
21869;BME280;11099;41.564;23.296;2023-04-21T08:55:43;97165.09;;;21.10;38.49
21869;BME280;11099;41.564;23.296;2023-04-21T08:58:10;97209.28;;;21.50;37.96
21869;BME280;11099;41.564;23.296;2023-04-21T09:00:36;97216.19;;;21.29;37.21
21869;BME280;11099;41.564;23.296;2023-04-21T09:03:02;97208.47;;;21.42;36.63
21869;BME280;11099;41.564;23.296;2023-04-21T09:05:31;97158.50;;;21.08;38.14
21869;BME280;11099;41.564;23.296;2023-04-21T09:08:08;97177.47;;;21.25;38.06
21869;BME280;11099;41.564;23.296;2023-04-21T09:10:48;97190.31;;;22.00;37.21
21869;BME280;11099;41.564;23.296;2023-04-21T09:13:15;97194.97;;;22.06;37.25
21869;BME280;11099;41.564;23.296;2023-04-21T09:15:44;97200.00;;;21.79;36.63
21869;BME280;11099;41.564;23.296;2023-04-21T09:18:18;97184.91;;;21.68;36.86
21869;BME280;11099;41.564;23.296;2023-04-21T09:20:45;97195.72;;;22.07;34.93
21869;BME280;11099;41.564;23.296;2023-04-21T09:23:11;97200.78;;;22.05;34.59
21869;BME280;11099;41.564;23.296;2023-04-21T09:25:38;97192.94;;;22.57;34.05
21869;BME280;11099;41.564;23.296;2023-04-21T09:28:08;97159.25;;;22.54;35.37
21869;BME280;11099;41.564;23.296;2023-04-21T09:30:36;97113.72;;;21.67;35.60
21869;BME280;11099;41.564;23.296;2023-04-21T09:33:02;97183.28;;;22.52;34.68
21869;BME280;11099;41.564;23.296;2023-04-21T09:35:31;97169.41;;;22.25;34.04
21869;BME280;11099;41.564;23.296;2023-04-21T09:37:57;97108.94;;;22.35;36.28
21869;BME280;11099;41.564;23.296;2023-04-21T09:40:22;97102.03;;;22.13;35.32
21869;BME280;11099;41.564;23.296;2023-04-21T09:42:47;97119.50;;;21.37;36.07
21869;BME280;11099;41.564;23.296;2023-04-21T09:45:14;97097.84;;;21.66;34.28
21869;BME280;11099;41.564;23.296;2023-04-21T09:47:41;97133.81;;;21.73;35.21
21869;BME280;11099;41.564;23.296;2023-04-21T09:50:10;97088.47;;;22.02;33.84
21869;BME280;11099;41.564;23.296;2023-04-21T09:52:40;97096.28;;;21.93;33.01
21869;BME280;11099;41.564;23.296;2023-04-21T09:55:11;97146.47;;;22.58;34.01
21869;BME280;11099;41.564;23.296;2023-04-21T09:57:38;97145.63;;;22.72;33.41
21869;BME280;11099;41.564;23.296;2023-04-21T10:00:07;97088.53;;;21.84;33.29
21869;BME280;11099;41.564;23.296;2023-04-21T10:02:35;97102.47;;;21.72;33.38
21869;BME280;11099;41.564;23.296;2023-04-21T10:05:04;97130.34;;;21.73;34.25
21869;BME280;11099;41.564;23.296;2023-04-21T10:07:31;97150.47;;;21.79;34.42
21869;BME280;11099;41.564;23.296;2023-04-21T10:09:58;97098.59;;;21.80;32.50
21869;BME280;11099;41.564;23.296;2023-04-21T10:12:24;97132.22;;;22.33;33.22
21869;BME280;11099;41.564;23.296;2023-04-21T10:14:52;97124.84;;;22.37;33.91
21869;BME280;11099;41.564;23.296;2023-04-21T10:17:21;97074.94;;;22.13;32.62
21869;BME280;11099;41.564;23.296;2023-04-21T10:19:50;97102.81;;;21.96;32.89
21869;BME280;11099;41.564;23.296;2023-04-21T10:22:31;97065.47;;;22.57;32.06
21869;BME280;11099;41.564;23.296;2023-04-21T10:24:59;97114.38;;;23.16;32.58
21869;BME280;11099;41.564;23.296;2023-04-21T10:27:36;97114.56;;;22.87;33.44
21869;BME280;11099;41.564;23.296;2023-04-21T10:30:23;97110.56;;;22.15;33.29
21869;BME280;11099;41.564;23.296;2023-04-21T10:33:04;97109.50;;;22.86;31.37
21869;BME280;11099;41.564;23.296;2023-04-21T10:36:00;97103.66;;;22.95;32.18
21869;BME280;11099;41.564;23.296;2023-04-21T10:38:33;97081.59;;;22.93;30.50
21869;BME280;11099;41.564;23.296;2023-04-21T10:41:24;97093.25;;;23.42;31.06
21869;BME280;11099;41.564;23.296;2023-04-21T10:43:51;97057.50;;;22.21;31.43
21869;BME280;11099;41.564;23.296;2023-04-21T10:46:37;97040.25;;;22.64;31.91
21869;BME280;11099;41.564;23.296;2023-04-21T10:49:11;97093.78;;;23.26;31.09
21869;BME280;11099;41.564;23.296;2023-04-21T10:54:26;97078.09;;;22.88;32.24
21869;BME280;11099;41.564;23.296;2023-04-21T10:56:57;97075.25;;;23.10;32.12
21869;BME280;11099;41.564;23.296;2023-04-21T10:59:24;97089.16;;;23.19;32.14
21869;BME280;11099;41.564;23.296;2023-04-21T11:01:50;97029.38;;;23.26;31.74
21869;BME280;11099;41.564;23.296;2023-04-21T11:04:17;97077.69;;;23.46;31.87
21869;BME280;11099;41.564;23.296;2023-04-21T11:07:04;97073.75;;;23.54;31.51
21869;BME280;11099;41.564;23.296;2023-04-21T11:09:31;97023.97;;;22.64;31.85
21869;BME280;11099;41.564;23.296;2023-04-21T11:12:01;97066.72;;;23.60;32.08
21869;BME280;11099;41.564;23.296;2023-04-21T11:14:28;97023.50;;;23.31;31.95
21869;BME280;11099;41.564;23.296;2023-04-21T11:16:53;96982.16;;;23.13;30.31
21869;BME280;11099;41.564;23.296;2023-04-21T11:19:19;97057.63;;;23.36;30.99
21869;BME280;11099;41.564;23.296;2023-04-21T11:21:48;97069.78;;;23.62;30.35
21869;BME280;11099;41.564;23.296;2023-04-21T11:24:14;96945.28;;;23.16;31.07
21869;BME280;11099;41.564;23.296;2023-04-21T11:26:39;97024.09;;;23.53;29.88
21869;BME280;11099;41.564;23.296;2023-04-21T11:29:08;97006.09;;;23.70;29.59
21869;BME280;11099;41.564;23.296;2023-04-21T11:31:35;97008.41;;;23.72;28.70
21869;BME280;11099;41.564;23.296;2023-04-21T11:34:01;96977.66;;;23.78;29.42
21869;BME280;11099;41.564;23.296;2023-04-21T11:36:32;97063.16;;;24.08;31.20
21869;BME280;11099;41.564;23.296;2023-04-21T11:38:57;96972.78;;;23.21;29.76
21869;BME280;11099;41.564;23.296;2023-04-21T11:41:24;97024.44;;;23.55;30.53
21869;BME280;11099;41.564;23.296;2023-04-21T11:43:50;97024.22;;;23.80;28.69
21869;BME280;11099;41.564;23.296;2023-04-21T11:46:26;97047.91;;;23.80;30.04
21869;BME280;11099;41.564;23.296;2023-04-21T11:49:06;97059.81;;;23.93;27.55
21869;BME280;11099;41.564;23.296;2023-04-21T11:54:03;97003.09;;;23.12;29.29
21869;BME280;11099;41.564;23.296;2023-04-21T11:56:29;97011.16;;;23.23;30.09
21869;BME280;11099;41.564;23.296;2023-04-21T11:58:58;96952.97;;;22.72;29.02
21869;BME280;11099;41.564;23.296;2023-04-21T12:01:25;97058.63;;;23.04;31.16
21869;BME280;11099;41.564;23.296;2023-04-21T12:03:53;96946.66;;;22.30;34.73
21869;BME280;11099;41.564;23.296;2023-04-21T12:06:20;97006.88;;;22.70;37.35
21869;BME280;11099;41.564;23.296;2023-04-21T12:08:46;96988.59;;;22.81;35.91
21869;BME280;11099;41.564;23.296;2023-04-21T12:11:15;97044.06;;;23.29;34.98
21869;BME280;11099;41.564;23.296;2023-04-21T12:13:41;97001.81;;;22.72;35.46
21869;BME280;11099;41.564;23.296;2023-04-21T12:16:06;96933.72;;;22.52;37.39
21869;BME280;11099;41.564;23.296;2023-04-21T12:18:32;96979.41;;;22.65;37.07
21869;BME280;11099;41.564;23.296;2023-04-21T12:21:00;97034.13;;;23.11;36.67
21869;BME280;11099;41.564;23.296;2023-04-21T12:23:26;96951.59;;;22.46;36.95
21869;BME280;11099;41.564;23.296;2023-04-21T12:25:52;96962.28;;;22.71;36.79
21869;BME280;11099;41.564;23.296;2023-04-21T12:28:17;96921.88;;;22.28;37.34
21869;BME280;11099;41.564;23.296;2023-04-21T12:30:43;96956.25;;;22.49;38.63
21869;BME280;11099;41.564;23.296;2023-04-21T12:33:09;96987.00;;;22.87;37.54
21869;BME280;11099;41.564;23.296;2023-04-21T12:35:35;96985.06;;;22.88;36.85
21869;BME280;11099;41.564;23.296;2023-04-21T12:38:00;96995.69;;;22.65;37.96
21869;BME280;11099;41.564;23.296;2023-04-21T12:40:26;96911.25;;;22.55;38.27
21869;BME280;11099;41.564;23.296;2023-04-21T12:42:51;96949.59;;;22.57;38.07
21869;BME280;11099;41.564;23.296;2023-04-21T12:45:17;96983.13;;;22.88;36.93
21869;BME280;11099;41.564;23.296;2023-04-21T12:47:42;96965.00;;;22.75;37.96
21869;BME280;11099;41.564;23.296;2023-04-21T12:50:08;96957.28;;;22.70;36.16
21869;BME280;11099;41.564;23.296;2023-04-21T12:52:37;96905.19;;;22.85;35.54
21869;BME280;11099;41.564;23.296;2023-04-21T12:55:03;96952.81;;;22.97;37.45
21869;BME280;11099;41.564;23.296;2023-04-21T12:57:29;96960.13;;;23.04;38.23